Terminal Aerodrome Forecast
Issued by NWS Los Angeles, CA

Home | Current Version | Previous Version | Text Only | Print | Product List | Glossary On
Versions: 1 2 3 4 5 6 7 8 9 10 11 12 13 14 15 16 17 18 19
000
FTUS46 KLOX 211122
TAFSMX
TAF
KSMX 211122Z 2112/2212 VRB03KT P6SM SCT150 BKN200
     FM212000 30010KT P6SM SCT150 BKN200
     FM220400 VRB03KT P6SM BKN200=

USA.gov is the U.S. government's official web portal to all federal, state and local government web resources and services.